Time;durP1;ratioP1;P1;durP2;ratioP2;P2;SDS_P1;SDS_P2;PMS_P1;PMS_P2;Temp;Humidity;BMP_temperature;BMP_pressure;BME280_temperature;BME280_humidity;BME280_pressure;Samples;Min_cycle;Max_cycle;Signal;HPM_P1;HPM_P2
2023/10/06 00:00:44;;;;;;;21.67;8.43;;;;;;;14.45;77.15;101084.16;5070234;28;20119;-68
2023/10/06 00:03:14;;;;;;;17.92;7.97;;;;;;;14.41;78.16;101079.72;5071016;28;20048;-67
2023/10/06 00:05:48;;;;;;;18.08;8.20;;;;;;;14.39;77.85;101077.09;5070717;28;20035;-67
2023/10/06 00:08:31;;;;;;;18.88;8.75;;;;;;;14.48;77.49;101078.19;5070570;28;20036;-68
2023/10/06 00:11:10;;;;;;;19.30;8.98;;;;;;;14.51;77.16;101086.09;5070148;28;20037;-67
2023/10/06 00:13:37;;;;;;;18.92;8.15;;;;;;;14.39;77.71;101079.69;5070564;28;20036;-67
2023/10/06 00:16:05;;;;;;;20.13;9.27;;;;;;;14.35;78.08;101072.59;5070336;28;20037;-67
2023/10/06 00:18:35;;;;;;;17.88;8.60;;;;;;;14.48;78.04;101078.19;5070974;28;20040;-66
2023/10/06 00:21:05;;;;;;;23.10;8.52;;;;;;;14.40;77.76;101064.97;5070882;28;20032;-66
2023/10/06 00:23:31;;;;;;;22.15;8.23;;;;;;;14.43;78.39;101071.97;5049602;28;20039;-67
2023/10/06 00:25:57;;;;;;;17.73;7.60;;;;;;;14.57;76.37;101062.91;5034959;28;20111;-66
2023/10/06 00:28:28;;;;;;;16.45;7.85;;;;;;;14.74;75.85;101079.00;5052696;28;20585;-66
2023/10/06 00:30:56;;;;;;;16.65;7.32;;;;;;;14.86;75.85;101078.50;5070971;28;20054;-67
2023/10/06 00:33:37;;;;;;;14.43;7.05;;;;;;;14.90;75.21;101067.34;5070909;28;20036;-66
2023/10/06 00:38:40;;;;;;;17.75;8.48;;;;;;;15.02;75.77;101059.91;5070787;28;20498;-67
2023/10/06 00:41:08;;;;;;;21.67;7.70;;;;;;;15.11;77.50;101059.25;5070569;28;20071;-67
2023/10/06 00:43:36;;;;;;;22.88;7.03;;;;;;;15.19;82.06;101051.69;5069026;28;20497;-67
2023/10/06 00:46:13;;;;;;;23.40;6.50;;;;;;;15.09;82.31;101036.66;5070733;28;20037;-67
2023/10/06 00:48:43;;;;;;;21.02;7.32;;;;;;;15.14;82.59;101053.25;5070139;28;20028;-66
2023/10/06 00:51:13;;;;;;;17.95;6.78;;;;;;;15.18;83.00;101049.94;5070334;28;20040;-66
2023/10/06 00:53:40;;;;;;;25.00;7.25;;;;;;;15.12;83.31;101045.44;5052490;28;20033;-66
2023/10/06 00:56:10;;;;;;;23.88;7.75;;;;;;;14.77;84.15;101013.25;5070399;28;20052;-66
2023/10/06 00:58:41;;;;;;;25.77;7.63;;;;;;;14.90;84.50;101038.75;5070025;28;20581;-66
2023/10/06 01:01:13;;;;;;;29.27;7.28;;;;;;;14.80;85.89;101042.78;5069373;28;20471;-66
2023/10/06 01:03:42;;;;;;;22.02;6.32;;;;;;;14.80;86.51;101049.72;5070193;28;20119;-66
2023/10/06 01:06:14;;;;;;;20.38;6.07;;;;;;;14.67;87.47;101056.28;5069946;28;20490;-66
2023/10/06 01:08:45;;;;;;;18.85;7.30;;;;;;;14.67;87.99;101046.75;5070012;28;20033;-66
2023/10/06 01:11:11;;;;;;;34.78;7.28;;;;;;;14.67;88.51;101046.75;5070237;28;20143;-67
2023/10/06 01:13:55;;;;;;;20.92;6.78;;;;;;;14.60;88.65;101036.13;5069584;28;20421;-66
2023/10/06 01:16:34;;;;;;;13.13;6.07;;;;;;;14.64;87.88;101044.06;5070152;28;20037;-66
2023/10/06 01:22:22;;;;;;;24.33;7.15;;;;;;;14.64;88.21;101041.47;5007522;28;20124;-65
2023/10/06 01:24:48;;;;;;;16.55;6.22;;;;;;;14.54;86.87;101018.63;5007922;28;20046;-65
2023/10/06 01:27:13;;;;;;;18.38;6.05;;;;;;;14.44;87.63;101022.66;5007877;28;20042;-66
2023/10/06 01:29:42;;;;;;;14.95;5.88;;;;;;;14.22;88.09;100990.84;5007809;28;20086;-67
2023/10/06 01:32:08;;;;;;;17.88;6.82;;;;;;;14.33;88.17;101040.53;5007515;28;20041;-67
2023/10/06 01:34:38;;;;;;;17.45;6.57;;;;;;;14.19;88.73;101031.41;5007600;28;20076;-66
2023/10/06 01:37:07;;;;;;;15.27;6.50;;;;;;;14.14;89.47;101035.59;5007503;28;20077;-67
2023/10/06 01:39:36;;;;;;;14.63;5.95;;;;;;;14.00;90.47;101035.16;5007835;28;20048;-65
2023/10/06 01:42:16;;;;;;;16.75;6.13;;;;;;;13.94;91.09;101027.19;4991476;28;20064;-66
2023/10/06 01:44:42;;;;;;;17.08;6.50;;;;;;;13.68;91.95;100991.78;5007254;28;20100;-65
2023/10/06 01:47:07;;;;;;;14.82;6.40;;;;;;;13.84;92.76;101021.66;5007550;28;20038;-66
2023/10/06 01:49:33;;;;;;;14.90;6.75;;;;;;;13.72;92.69;101016.97;5007686;28;20548;-66
2023/10/06 01:52:01;;;;;;;14.90;6.20;;;;;;;13.78;92.34;101018.88;5007407;28;20049;-65
2023/10/06 01:54:31;;;;;;;19.58;6.72;;;;;;;13.87;91.61;101015.72;5008586;28;20042;-66
2023/10/06 01:57:04;;;;;;;25.98;7.50;;;;;;;14.02;89.80;101010.13;5026377;28;20513;-66
2023/10/06 01:59:30;;;;;;;25.08;7.18;;;;;;;14.13;88.99;101018.25;5073439;28;20047;-66
2023/10/06 02:02:00;;;;;;;14.93;6.47;;;;;;;14.06;88.61;101005.06;5073198;28;20399;-65
2023/10/06 02:04:25;;;;;;;18.73;6.93;;;;;;;13.97;89.33;101029.84;5073487;28;20052;-65
2023/10/06 02:06:51;;;;;;;14.63;7.05;;;;;;;13.86;90.10;101034.72;5073256;28;20086;-66
2023/10/06 02:09:19;;;;;;;21.00;6.72;;;;;;;14.05;90.11;101025.81;5073792;28;20036;-66
2023/10/06 02:11:46;;;;;;;19.02;7.03;;;;;;;13.97;88.65;100989.22;5073629;28;20512;-66
2023/10/06 02:14:17;;;;;;;19.88;6.80;;;;;;;14.17;88.11;101007.13;5073197;28;20387;-67
2023/10/06 02:16:44;;;;;;;19.92;7.60;;;;;;;14.35;87.45;101023.25;5073110;28;20040;-66
2023/10/06 02:19:10;;;;;;;29.23;8.10;;;;;;;14.23;85.27;101015.09;5073338;28;20119;-66
2023/10/06 02:21:44;;;;;;;18.40;8.45;;;;;;;14.10;83.65;101024.22;5073398;28;20449;-66
2023/10/06 02:24:10;;;;;;;19.73;8.90;;;;;;;13.87;84.15;101016.59;5037579;28;20036;-66
2023/10/06 02:26:36;;;;;;;21.08;9.00;;;;;;;13.74;83.53;101024.81;5073202;28;20037;-66
2023/10/06 02:29:03;;;;;;;21.40;9.45;;;;;;;13.51;83.60;101024.06;5073255;28;20060;-66
2023/10/06 02:31:28;;;;;;;19.40;8.02;;;;;;;13.35;83.81;101035.59;5073270;28;20043;-66
2023/10/06 02:33:54;;;;;;;26.38;9.25;;;;;;;13.18;84.72;101024.59;5073184;28;20033;-66
2023/10/06 02:36:22;;;;;;;18.52;8.25;;;;;;;13.08;84.83;101020.81;5073010;28;20139;-66
2023/10/06 02:38:50;;;;;;;18.45;7.82;;;;;;;12.94;84.66;100999.59;5072637;28;20028;-66
2023/10/06 02:41:36;;;;;;;14.70;7.45;;;;;;;12.98;84.65;101034.28;5030306;28;20487;-66
2023/10/06 02:44:15;;;;;;;16.85;8.52;;;;;;;12.98;85.05;101034.28;5030346;28;20533;-66
2023/10/06 02:46:44;;;;;;;20.15;7.88;;;;;;;12.89;87.81;101034.81;5013595;28;20045;-66
2023/10/06 02:49:13;;;;;;;20.63;8.57;;;;;;;12.84;89.66;101036.38;5030250;28;20095;-66
2023/10/06 02:52:00;;;;;;;19.17;7.75;;;;;;;12.64;89.91;100996.78;5029929;28;20037;-66
2023/10/06 02:54:27;;;;;;;21.25;8.18;;;;;;;12.73;90.87;101029.06;5029924;28;20042;-65
2023/10/06 02:56:55;;;;;;;21.83;7.85;;;;;;;12.72;91.79;101050.63;5029851;28;20132;-66
2023/10/06 02:59:21;;;;;;;18.65;8.02;;;;;;;12.73;92.36;101038.53;5030010;28;20045;-66
2023/10/06 03:01:52;;;;;;;16.45;6.70;;;;;;;12.75;92.41;101032.59;5029366;28;20128;-66
2023/10/06 03:04:27;;;;;;;21.00;8.07;;;;;;;12.75;92.13;101029.13;5030064;28;20076;-66
2023/10/06 03:06:57;;;;;;;18.27;7.72;;;;;;;12.88;92.11;101026.16;4998399;28;20120;-66
2023/10/06 03:09:38;;;;;;;18.38;7.45;;;;;;;13.05;90.92;101029.34;5029677;28;20037;-67
2023/10/06 03:14:49;;;;;;;20.08;7.25;;;;;;;13.06;85.66;100992.25;5072384;28;20037;-66
2023/10/06 03:17:14;;;;;;;15.43;7.50;;;;;;;13.05;86.02;100990.47;5072077;28;20036;-66
2023/10/06 03:20:01;;;;;;;17.23;7.65;;;;;;;13.37;84.74;101033.91;5072310;28;20040;-66
2023/10/06 03:22:27;;;;;;;18.60;7.03;;;;;;;13.41;84.25;101033.22;5071494;28;20039;-66
2023/10/06 03:24:57;;;;;;;17.88;6.43;;;;;;;13.51;82.56;101035.31;5072140;28;20043;-67
2023/10/06 03:27:23;;;;;;;15.63;6.88;;;;;;;13.63;79.87;101036.53;5072064;28;20074;-67
2023/10/06 03:29:55;;;;;;;15.18;6.50;;;;;;;13.65;77.99;101037.50;5072127;28;20086;-67
2023/10/06 03:32:38;;;;;;;16.42;6.65;;;;;;;13.68;77.74;101040.16;5072223;28;20039;-67
2023/10/06 03:38:08;;;;;;;15.73;7.13;;;;;;;13.70;77.47;101039.38;5072018;28;20109;-67
2023/10/06 03:40:53;;;;;;;17.27;6.85;;;;;;;13.69;78.68;101044.53;5029160;28;20575;-67
2023/10/06 03:46:03;;;;;;;17.42;7.30;;;;;;;13.71;77.93;101035.09;5015471;28;20056;-67
2023/10/06 03:48:31;;;;;;;18.45;6.88;;;;;;;13.71;78.73;101027.31;5032013;28;20494;-68
2023/10/06 03:51:01;;;;;;;18.35;6.53;;;;;;;13.68;78.03;101038.47;5023756;28;20099;-67
2023/10/06 03:53:29;;;;;;;18.38;7.85;;;;;;;13.59;79.05;101033.88;5049302;28;20048;-68
2023/10/06 03:55:57;;;;;;;17.73;6.95;;;;;;;13.55;79.24;101015.53;5048915;28;20040;-68
2023/10/06 03:58:48;;;;;;;18.95;8.20;;;;;;;13.72;77.80;101034.25;5025181;28;20045;-69
2023/10/06 04:01:26;;;;;;;19.50;7.18;;;;;;;13.78;76.64;101033.56;4989031;28;20042;-68
2023/10/06 04:03:58;;;;;;;19.20;7.50;;;;;;;13.75;76.39;101016.19;4989571;28;20046;-66
2023/10/06 04:06:27;;;;;;;18.90;7.05;;;;;;;13.90;75.70;101026.19;4988791;28;20045;-67
2023/10/06 04:08:53;;;;;;;14.53;6.37;;;;;;;13.70;76.92;100990.09;4985926;28;20109;-66
2023/10/06 04:11:38;;;;;;;15.60;6.80;;;;;;;13.81;76.95;101036.28;4989367;28;20038;-66
2023/10/06 04:14:05;;;;;;;19.23;6.50;;;;;;;13.73;77.21;101031.72;5008311;28;20049;-65
2023/10/06 04:16:50;;;;;;;16.35;7.15;;;;;;;13.79;76.69;101032.75;4987325;28;20042;-66
2023/10/06 04:19:15;;;;;;;17.05;6.28;;;;;;;13.72;76.52;101032.53;4995057;28;20052;-67
2023/10/06 04:21:42;;;;;;;24.38;6.63;;;;;;;13.61;77.08;101041.69;5005052;28;20747;-67
2023/10/06 04:24:08;;;;;;;15.43;6.10;;;;;;;13.53;77.50;101049.22;4986993;28;20050;-67
2023/10/06 04:26:33;;;;;;;14.38;6.22;;;;;;;13.51;77.32;101040.50;4988256;28;20542;-66
2023/10/06 04:28:59;;;;;;;14.65;5.53;;;;;;;13.53;77.00;101038.84;4956996;28;20045;-65
2023/10/06 04:31:24;;;;;;;16.45;6.85;;;;;;;13.61;77.00;101045.97;4976884;28;20041;-66
2023/10/06 04:33:51;;;;;;;16.52;6.72;;;;;;;13.57;77.05;101045.88;5009019;28;20049;-66
2023/10/06 04:36:20;;;;;;;15.02;6.55;;;;;;;13.58;76.88;101054.53;4976205;28;20459;-65
2023/10/06 04:38:47;;;;;;;13.68;6.32;;;;;;;13.55;76.16;101052.72;5009006;28;20041;-65
2023/10/06 04:41:14;;;;;;;15.95;7.03;;;;;;;13.58;76.72;101057.13;5008953;28;20038;-65
2023/10/06 04:44:18;;;;;;;14.00;6.03;;;;;;;13.50;77.31;101058.59;4989039;28;20105;-66
2023/10/06 04:46:44;;;;;;;14.77;6.60;;;;;;;13.53;77.13;101062.19;4950361;28;20106;-65
2023/10/06 04:49:10;;;;;;;12.57;6.03;;;;;;;13.31;77.90;101019.03;4960545;28;20133;-65
2023/10/06 04:51:37;;;;;;;23.73;7.03;;;;;;;13.54;78.28;101063.94;4954556;28;20109;-67
2023/10/06 04:54:07;;;;;;;16.45;7.90;;;;;;;13.38;78.63;101075.50;4961591;28;20038;-67
2023/10/06 04:56:34;;;;;;;16.25;6.15;;;;;;;13.21;79.27;101081.78;4954365;28;20060;-67
2023/10/06 04:59:00;;;;;;;15.63;5.72;;;;;;;13.07;79.56;101086.44;4970014;28;20058;-65
2023/10/06 05:01:29;;;;;;;20.20;7.55;;;;;;;12.95;81.07;101081.69;4968015;28;20058;-67
2023/10/06 05:03:55;;;;;;;21.92;6.97;;;;;;;12.98;81.61;101076.59;4967613;28;20043;-66
2023/10/06 05:06:21;;;;;;;15.07;6.93;;;;;;;13.04;81.70;101079.44;4968546;28;20030;-65
2023/10/06 05:08:47;;;;;;;14.90;5.85;;;;;;;13.13;81.55;101078.00;4968741;28;20070;-68
2023/10/06 05:11:14;;;;;;;16.90;7.07;;;;;;;13.18;81.86;101079.06;4951890;28;20234;-67
2023/10/06 05:13:40;;;;;;;16.35;6.45;;;;;;;13.25;81.85;101088.81;4967698;28;20030;-68
2023/10/06 05:16:05;;;;;;;15.88;7.28;;;;;;;13.35;81.55;101080.53;4998235;28;20079;-68
2023/10/06 05:18:33;;;;;;;15.70;6.82;;;;;;;13.20;81.94;101062.72;5023286;28;20040;-68
2023/10/06 05:20:58;;;;;;;13.45;6.28;;;;;;;13.22;81.86;101047.22;5039858;28;20037;-67
2023/10/06 05:23:24;;;;;;;18.98;7.15;;;;;;;13.67;81.76;101087.69;5063457;28;20398;-67
2023/10/06 05:25:49;;;;;;;19.48;8.80;;;;;;;13.62;82.43;101095.34;5060853;28;20036;-69
2023/10/06 05:28:18;;;;;;;25.00;11.18;;;;;;;13.56;83.26;101080.44;5035542;28;20037;-69
2023/10/06 05:30:44;;;;;;;18.73;8.10;;;;;;;13.49;84.59;101091.44;5040071;28;20033;-69
2023/10/06 05:33:10;;;;;;;17.15;6.70;;;;;;;13.46;85.38;101098.22;5061640;28;20040;-66
2023/10/06 05:35:38;;;;;;;17.00;7.18;;;;;;;13.45;86.07;101097.34;5069593;28;20033;-69
2023/10/06 05:38:13;;;;;;;13.57;6.55;;;;;;;13.57;85.95;101100.38;5069531;28;20414;-69
2023/10/06 05:40:48;;;;;;;21.85;7.32;;;;;;;13.35;85.92;101043.34;5068385;28;20059;-68
2023/10/06 05:43:16;;;;;;;15.40;6.30;;;;;;;13.69;85.88;101094.69;5064836;28;20036;-69
2023/10/06 05:45:42;;;;;;;17.63;7.57;;;;;;;13.61;86.46;101084.91;5050021;28;20036;-68
2023/10/06 05:48:11;;;;;;;16.35;7.40;;;;;;;13.78;86.37;101098.44;5049515;28;20499;-69
2023/10/06 05:50:38;;;;;;;21.10;7.43;;;;;;;13.90;86.03;101101.47;5049242;28;20037;-68
2023/10/06 05:53:04;;;;;;;14.93;6.72;;;;;;;14.04;85.96;101099.31;5064780;28;20036;-69
2023/10/06 05:55:41;;;;;;;15.63;6.68;;;;;;;14.08;85.98;101090.78;5068937;28;20064;-68
2023/10/06 05:58:19;;;;;;;14.50;7.07;;;;;;;14.08;86.16;101102.06;5068410;28;20102;-67
2023/10/06 06:00:52;;;;;;;16.55;7.03;;;;;;;14.20;86.20;101103.31;5068775;28;20039;-68
2023/10/06 06:03:21;;;;;;;13.77;6.05;;;;;;;14.20;86.28;101090.31;5062885;28;20063;-68
2023/10/06 06:05:48;;;;;;;13.10;7.07;;;;;;;14.37;86.15;101101.25;5076356;28;20118;-68
2023/10/06 06:08:14;;;;;;;20.27;7.03;;;;;;;14.50;85.76;101103.38;5088702;28;20040;-67
2023/10/06 06:10:40;;;;;;;14.45;6.53;;;;;;;14.58;85.51;101114.03;5088177;28;20430;-67
2023/10/06 06:13:06;;;;;;;21.75;6.57;;;;;;;14.59;85.50;101107.09;5082648;28;20114;-68
2023/10/06 06:15:32;;;;;;;18.73;6.72;;;;;;;14.66;85.18;101112.56;5068682;28;20024;-67
2023/10/06 06:17:58;;;;;;;17.73;7.22;;;;;;;14.72;85.19;101114.47;5062909;28;20122;-68
2023/10/06 06:20:27;;;;;;;15.18;6.65;;;;;;;14.74;84.21;101106.72;5081290;28;20032;-69
2023/10/06 06:22:58;;;;;;;13.98;6.97;;;;;;;14.92;84.38;101114.22;5072537;28;20040;-67
2023/10/06 06:25:26;;;;;;;20.05;6.78;;;;;;;15.05;83.65;101108.50;5067644;28;20029;-67
2023/10/06 06:27:54;;;;;;;15.57;6.47;;;;;;;15.18;83.25;101101.94;5077694;28;20105;-68
2023/10/06 06:30:20;;;;;;;15.80;7.95;;;;;;;15.44;82.24;101114.78;5085799;28;20486;-68
2023/10/06 06:32:49;;;;;;;17.23;7.68;;;;;;;15.57;82.01;101113.41;5086572;28;20040;-68
2023/10/06 06:35:19;;;;;;;21.50;9.90;;;;;;;15.75;81.35;101113.91;5086302;28;20446;-67
2023/10/06 06:37:52;;;;;;;14.85;6.85;;;;;;;15.78;81.06;101110.50;5089475;28;20028;-66
2023/10/06 06:40:21;;;;;;;15.32;7.05;;;;;;;15.80;79.96;101081.06;5086435;28;20029;-67
2023/10/06 06:42:52;;;;;;;15.43;7.07;;;;;;;16.24;79.24;101114.28;5088623;28;20512;-67
2023/10/06 06:45:19;;;;;;;18.00;7.03;;;;;;;16.45;78.36;101120.84;5075241;28;20093;-68
2023/10/06 06:47:45;;;;;;;15.25;7.20;;;;;;;16.63;77.98;101120.38;5092901;28;20081;-67
2023/10/06 06:50:17;;;;;;;12.98;6.90;;;;;;;16.50;77.78;101078.38;5092527;28;20032;-67
2023/10/06 06:52:47;;;;;;;15.23;7.07;;;;;;;16.91;76.67;101116.69;5092520;28;20032;-67
2023/10/06 06:55:13;;;;;;;16.00;7.13;;;;;;;17.11;75.87;101111.00;5089107;28;20032;-68
2023/10/06 06:57:43;;;;;;;17.15;7.05;;;;;;;17.30;75.19;101114.84;5092124;28;20040;-67
2023/10/06 07:00:17;;;;;;;18.23;7.20;;;;;;;17.49;74.60;101121.31;5092070;28;20058;-67
2023/10/06 07:02:46;;;;;;;14.10;7.22;;;;;;;17.70;73.81;101114.72;5090632;28;20382;-67
2023/10/06 07:05:13;;;;;;;16.33;7.30;;;;;;;17.76;73.48;101088.72;5092493;28;20039;-68
2023/10/06 07:07:40;;;;;;;13.68;6.38;;;;;;;18.00;73.24;101103.94;5092261;28;20040;-67
2023/10/06 07:10:10;;;;;;;15.60;6.70;;;;;;;18.16;72.63;101105.09;5092133;28;20494;-68
2023/10/06 07:12:36;;;;;;;14.20;7.43;;;;;;;18.32;72.33;101100.09;5037804;28;20028;-68
2023/10/06 07:15:02;;;;;;;14.15;7.15;;;;;;;18.31;71.03;101066.97;5073971;28;20161;-68
2023/10/06 07:17:28;;;;;;;19.17;8.60;;;;;;;18.49;71.16;101095.13;5092305;28;20039;-67
2023/10/06 07:19:53;;;;;;;16.77;8.27;;;;;;;18.52;71.06;101103.03;5091981;28;20028;-66
2023/10/06 07:22:22;;;;;;;12.18;6.15;;;;;;;18.41;71.03;101110.69;5071277;28;20564;-67
2023/10/06 07:24:49;;;;;;;17.90;5.97;;;;;;;18.06;71.40;101064.84;5092208;28;20024;-66
2023/10/06 07:27:14;;;;;;;12.30;6.13;;;;;;;18.30;71.06;101101.81;5092118;28;20036;-67
2023/10/06 07:29:40;;;;;;;14.63;7.15;;;;;;;18.52;69.74;101097.78;5092265;28;20020;-67
2023/10/06 07:32:05;;;;;;;13.18;6.25;;;;;;;18.68;69.48;101104.97;5092089;28;20032;-68
2023/10/06 07:34:31;;;;;;;14.23;7.07;;;;;;;18.95;69.15;101097.50;5092015;28;20111;-68
2023/10/06 07:36:56;;;;;;;13.77;6.65;;;;;;;19.16;68.44;101091.66;5091487;28;20020;-67
2023/10/06 07:39:22;;;;;;;16.65;7.15;;;;;;;19.34;67.94;101097.09;5092020;28;20509;-67
2023/10/06 07:41:47;;;;;;;14.55;6.82;;;;;;;19.58;66.67;101090.34;5091801;28;20478;-67
2023/10/06 07:44:14;;;;;;;13.25;5.90;;;;;;;19.85;65.51;101089.75;5091766;28;20032;-67
2023/10/06 07:46:41;;;;;;;14.35;6.20;;;;;;;19.80;65.42;101080.06;5091413;28;20036;-68
2023/10/06 07:49:07;;;;;;;12.88;5.55;;;;;;;19.96;64.32;101086.34;5091848;28;20111;-67
2023/10/06 07:51:33;;;;;;;15.65;6.40;;;;;;;19.85;65.07;101052.19;5090735;28;20111;-66
2023/10/06 07:53:59;;;;;;;12.38;5.72;;;;;;;20.17;64.59;101081.25;5073511;28;20028;-67
2023/10/06 07:56:26;;;;;;;15.13;6.45;;;;;;;20.33;64.55;101077.00;5052687;28;20073;-67
2023/10/06 07:58:53;;;;;;;12.85;5.85;;;;;;;20.46;63.63;101080.59;5089899;28;20035;-67
2023/10/06 08:01:19;;;;;;;14.13;6.43;;;;;;;20.64;62.86;101081.56;5054995;28;20044;-66
2023/10/06 08:03:45;;;;;;;19.77;6.38;;;;;;;20.68;61.83;101046.59;5091633;28;20032;-66
2023/10/06 08:06:12;;;;;;;13.38;5.60;;;;;;;20.79;61.43;101055.41;5091164;28;20427;-67
2023/10/06 08:08:38;;;;;;;11.68;5.53;;;;;;;21.05;60.24;101080.00;5091393;28;20024;-68
2023/10/06 08:11:08;;;;;;;12.13;6.00;;;;;;;21.15;61.84;101074.78;5089819;28;20043;-67
2023/10/06 08:13:35;;;;;;;14.68;6.00;;;;;;;21.32;60.36;101066.06;5087967;28;20406;-67
2023/10/06 08:16:02;;;;;;;11.32;6.03;;;;;;;21.33;62.19;101041.56;5089515;28;20132;-67
2023/10/06 08:18:29;;;;;;;12.70;7.07;;;;;;;21.47;59.77;101074.00;5090706;28;20046;-67
2023/10/06 08:20:56;;;;;;;15.25;6.22;;;;;;;21.33;60.28;101067.81;5090904;28;20039;-66
2023/10/06 08:23:21;;;;;;;14.68;6.45;;;;;;;21.34;60.74;101077.47;5089521;28;20429;-67
2023/10/06 08:25:49;;;;;;;20.63;6.43;;;;;;;21.31;60.71;101088.84;5071393;28;20040;-66
2023/10/06 08:28:14;;;;;;;16.60;6.70;;;;;;;21.18;64.14;101045.03;5089738;28;20036;-66
2023/10/06 08:30:41;;;;;;;14.70;6.30;;;;;;;21.36;62.82;101074.84;5089708;28;20078;-67
2023/10/06 08:33:10;;;;;;;12.38;5.93;;;;;;;21.31;61.60;101087.97;5089478;28;20035;-66
2023/10/06 08:35:40;;;;;;;11.33;5.80;;;;;;;21.10;60.71;101079.16;5089883;28;20381;-66
2023/10/06 08:38:07;;;;;;;13.65;6.75;;;;;;;21.28;60.22;101080.06;5087021;28;20055;-67
2023/10/06 08:40:36;;;;;;;13.27;6.20;;;;;;;21.41;59.88;101068.72;5090572;28;20028;-66
2023/10/06 08:43:05;;;;;;;9.45;5.43;;;;;;;21.62;59.43;101073.16;5091085;28;20028;-67
2023/10/06 08:45:31;;;;;;;13.82;6.18;;;;;;;21.83;58.13;101076.66;5090669;28;20027;-67
2023/10/06 08:48:01;;;;;;;10.82;5.95;;;;;;;22.04;58.36;101075.78;5087651;28;20058;-66
2023/10/06 08:50:27;;;;;;;14.18;6.68;;;;;;;22.12;59.15;101068.78;5090550;28;20434;-66
2023/10/06 08:52:54;;;;;;;13.73;6.68;;;;;;;22.28;57.92;101072.25;5090329;28;20034;-67
2023/10/06 08:55:27;;;;;;;19.70;7.32;;;;;;;22.39;57.79;101077.53;5046583;28;20466;-67
2023/10/06 08:57:54;;;;;;;14.07;7.32;;;;;;;22.55;57.59;101070.44;5071942;28;20032;-66
2023/10/06 09:00:24;;;;;;;13.40;5.95;;;;;;;22.68;57.14;101062.53;5090285;28;20126;-67
2023/10/06 09:02:51;;;;;;;19.85;6.78;;;;;;;22.93;57.19;101058.03;5090003;28;20097;-66
2023/10/06 09:05:18;;;;;;;14.50;6.18;;;;;;;22.78;56.33;101051.97;5090147;28;20462;-67
2023/10/06 09:08:05;;;;;;;13.40;6.10;;;;;;;22.75;56.46;101057.25;5090057;28;20512;-67
2023/10/06 09:10:32;;;;;;;14.50;5.90;;;;;;;22.78;56.50;101057.22;5089847;28;20039;-66
2023/10/06 09:13:02;;;;;;;14.68;6.45;;;;;;;22.87;57.00;101050.19;5089830;28;20531;-67
2023/10/06 09:15:29;;;;;;;14.05;6.22;;;;;;;22.93;57.70;101045.75;5089837;28;20088;-67
2023/10/06 09:17:56;;;;;;;13.15;6.50;;;;;;;22.98;56.03;101007.97;5090130;28;20477;-67
2023/10/06 09:20:31;;;;;;;11.30;6.20;;;;;;;23.32;56.18;101040.28;5090006;28;20039;-67
2023/10/06 09:22:59;;;;;;;11.75;6.43;;;;;;;23.33;55.88;101007.78;5089751;28;20099;-68
2023/10/06 09:25:25;;;;;;;15.15;6.40;;;;;;;23.68;56.22;101034.75;5089984;28;20028;-67
2023/10/06 09:28:08;;;;;;;13.13;7.32;;;;;;;23.74;54.64;101039.97;5089959;28;20028;-68
2023/10/06 09:30:57;;;;;;;13.38;6.13;;;;;;;23.93;54.82;101043.34;5088850;28;20123;-68
2023/10/06 09:33:28;;;;;;;14.55;6.78;;;;;;;23.95;57.55;101002.03;4998214;28;20039;-67
2023/10/06 09:36:07;;;;;;;10.88;6.20;;;;;;;24.14;56.46;101029.06;4995558;28;20041;-66
2023/10/06 09:38:36;;;;;;;12.20;5.95;;;;;;;24.28;55.35;101041.25;4990848;28;20109;-68
2023/10/06 09:41:02;;;;;;;;;;;;;;;24.29;56.06;101038.59;4990172;28;20510;-68
2023/10/06 09:43:33;;;;;;;11.88;6.18;;;;;;;24.17;55.65;101033.44;4996091;28;19917;-67
2023/10/06 09:46:06;;;;;;;10.38;6.38;;;;;;;24.23;55.67;101033.38;5007977;28;20432;-67
2023/10/06 09:48:34;;;;;;;12.98;6.82;;;;;;;24.33;54.36;101039.44;4997380;28;20055;-67
2023/10/06 09:51:01;;;;;;;15.10;6.75;;;;;;;24.54;54.90;101033.03;4988297;28;20092;-67
2023/10/06 09:53:28;;;;;;;11.43;6.28;;;;;;;24.68;53.48;101023.19;4988185;28;20050;-66
2023/10/06 09:55:53;;;;;;;10.77;6.72;;;;;;;24.68;54.88;101006.47;4988188;28;20595;-66
2023/10/06 09:58:22;;;;;;;10.43;6.03;;;;;;;24.87;53.35;101015.03;4994986;28;20034;-66
2023/10/06 10:00:49;;;;;;;10.95;5.97;;;;;;;24.99;52.45;101006.06;4996326;28;20129;-66
2023/10/06 10:03:16;;;;;;;14.88;7.13;;;;;;;24.99;52.92;100977.88;4999526;28;20046;-66
2023/10/06 10:05:44;;;;;;;12.85;6.30;;;;;;;25.27;53.59;100995.06;5019423;28;20026;-66
2023/10/06 10:08:13;;;;;;;14.43;6.72;;;;;;;25.37;52.00;100993.19;4999931;28;20049;-67
2023/10/06 10:10:44;;;;;;;12.68;5.90;;;;;;;25.43;51.99;100988.66;5055151;28;20129;-66
2023/10/06 10:13:35;;;;;;;11.30;6.28;;;;;;;25.48;50.47;100986.84;5089059;28;20494;-65
2023/10/06 10:16:31;;;;;;;10.95;6.20;;;;;;;25.57;51.21;100980.53;5085733;28;20040;-67
2023/10/06 10:19:03;;;;;;;11.82;6.03;;;;;;;25.64;49.97;100983.94;5088950;28;20550;-67
2023/10/06 10:21:34;;;;;;;11.98;7.35;;;;;;;25.60;50.59;100976.97;5075498;28;20040;-67
2023/10/06 10:24:05;;;;;;;10.88;6.43;;;;;;;25.54;49.85;100970.00;5072395;28;20525;-66
2023/10/06 10:26:35;;;;;;;10.07;6.65;;;;;;;25.59;50.12;100967.28;5093238;28;20124;-67
2023/10/06 10:29:13;;;;;;;11.63;5.85;;;;;;;25.77;49.97;100972.25;5090921;28;20036;-67
2023/10/06 10:31:39;;;;;;;15.82;6.45;;;;;;;25.91;49.65;100964.03;5091119;28;20063;-67
2023/10/06 10:34:05;;;;;;;15.98;7.40;;;;;;;25.98;48.72;100959.50;5093559;28;20150;-66
2023/10/06 10:36:31;;;;;;;11.95;6.82;;;;;;;26.03;47.83;100947.03;5093797;28;20044;-66
2023/10/06 10:39:21;;;;;;;16.92;7.50;;;;;;;25.95;46.64;100947.19;5093735;28;20036;-66
2023/10/06 10:41:47;;;;;;;11.98;6.07;;;;;;;25.69;47.23;100942.41;5093581;28;20040;-66
2023/10/06 10:44:14;;;;;;;17.08;6.93;;;;;;;25.81;48.84;100941.31;5093803;28;20501;-66
2023/10/06 10:46:40;;;;;;;15.63;6.78;;;;;;;25.86;47.64;100938.56;5093486;28;20086;-66
2023/10/06 10:49:09;;;;;;;11.23;7.75;;;;;;;25.66;46.92;100901.03;5093543;28;20098;-66
2023/10/06 10:51:58;;;;;;;10.38;5.88;;;;;;;25.57;48.47;100932.94;5093760;28;20032;-66
2023/10/06 10:54:27;;;;;;;9.88;6.25;;;;;;;25.40;48.72;100927.94;5093150;28;20509;-66
2023/10/06 10:57:01;;;;;;;11.75;6.82;;;;;;;25.33;49.67;100931.53;5093332;28;20462;-66
2023/10/06 11:02:49;;;;;;;14.50;6.90;;;;;;;25.49;49.54;100916.34;5092837;28;20056;-67
2023/10/06 11:05:21;;;;;;;14.57;7.15;;;;;;;25.42;48.12;100909.41;5093302;28;20066;-68
2023/10/06 11:07:57;;;;;;;9.50;6.82;;;;;;;25.37;48.71;100912.13;5093167;28;20074;-67
2023/10/06 11:10:23;;;;;;;11.65;7.45;;;;;;;25.28;48.87;100907.84;5093116;28;20032;-67
2023/10/06 11:13:09;;;;;;;17.13;7.70;;;;;;;25.30;48.18;100898.13;5091213;28;20044;-67
2023/10/06 11:15:34;;;;;;;12.80;7.32;;;;;;;25.50;48.80;100905.72;4986665;28;20045;-67
2023/10/06 11:18:02;;;;;;;13.98;6.60;;;;;;;25.68;48.22;100901.88;4978378;28;20050;-66
2023/10/06 11:20:33;;;;;;;12.82;6.55;;;;;;;25.78;48.36;100894.66;4979898;28;20425;-66
2023/10/06 11:23:00;;;;;;;9.68;6.55;;;;;;;25.92;46.87;100894.38;4979556;28;20173;-67
2023/10/06 11:25:27;;;;;;;11.10;6.65;;;;;;;25.92;47.40;100901.41;4979435;28;20042;-67
2023/10/06 11:28:03;;;;;;;11.93;6.63;;;;;;;25.59;46.64;100862.38;4976160;28;20047;-67
2023/10/06 11:30:31;;;;;;;14.73;7.57;;;;;;;25.70;46.16;100896.56;4971222;28;20039;-67
2023/10/06 11:32:57;;;;;;;11.57;6.78;;;;;;;25.84;48.56;100893.63;4971163;28;20204;-66
2023/10/06 11:35:23;;;;;;;20.27;7.60;;;;;;;25.88;46.67;100892.66;4971236;28;20054;-67
2023/10/06 11:37:48;;;;;;;11.13;6.85;;;;;;;25.69;47.07;100863.06;4971035;28;20121;-66
2023/10/06 11:40:15;;;;;;;15.73;7.13;;;;;;;25.96;47.47;100896.03;4971015;28;20035;-66
2023/10/06 11:42:41;;;;;;;10.27;6.38;;;;;;;25.67;45.49;100855.19;4970897;28;20042;-66
2023/10/06 11:45:31;;;;;;;18.45;7.97;;;;;;;25.94;47.40;100881.09;4970922;28;20489;-66